createdAt,value
2023-04-19T00:00:19.400Z,16.10
2023-04-19T00:01:19.356Z,15.70
2023-04-19T00:02:19.550Z,16.10
2023-04-19T00:03:19.477Z,16.10
2023-04-19T00:04:19.618Z,16.00
2023-04-19T00:05:19.334Z,16.00
2023-04-19T00:06:19.304Z,16.00
2023-04-19T00:07:19.296Z,15.80
2023-04-19T00:08:19.288Z,16.70
2023-04-19T00:09:19.289Z,15.80
2023-04-19T00:10:19.252Z,16.00
2023-04-19T00:11:19.251Z,16.60
2023-04-19T00:12:19.338Z,16.00
2023-04-19T00:13:19.220Z,16.40
2023-04-19T00:14:19.242Z,15.90
2023-04-19T00:15:19.213Z,15.60
2023-04-19T00:16:19.206Z,16.20
2023-04-19T00:17:19.175Z,16.60
2023-04-19T00:18:19.160Z,15.60
2023-04-19T00:19:19.165Z,17.20
2023-04-19T00:20:19.151Z,16.00
2023-04-19T00:21:19.141Z,15.80
2023-04-19T00:22:19.116Z,15.80
2023-04-19T00:23:19.103Z,16.10
2023-04-19T00:24:19.114Z,15.70
2023-04-19T00:25:19.100Z,15.50
2023-04-19T00:26:19.110Z,16.20
2023-04-19T00:27:19.084Z,15.60
2023-04-19T00:28:19.086Z,16.30
2023-04-19T00:29:19.034Z,16.60
2023-04-19T00:30:19.025Z,15.80
2023-04-19T00:31:19.056Z,16.00
2023-04-19T00:32:19.036Z,16.60
2023-04-19T00:33:19.020Z,16.30
2023-04-19T00:34:18.982Z,15.60
2023-04-19T00:35:18.963Z,16.20
2023-04-19T00:36:18.996Z,16.00
2023-04-19T00:37:18.960Z,14.90
2023-04-19T00:38:18.948Z,15.90
2023-04-19T00:39:18.945Z,15.80
2023-04-19T00:40:18.908Z,15.70
2023-04-19T00:41:18.898Z,16.10
2023-04-19T00:42:18.881Z,16.40
2023-04-19T00:43:18.870Z,15.30
2023-04-19T00:44:18.982Z,15.70
2023-04-19T00:45:18.890Z,15.40
2023-04-19T00:46:18.890Z,15.40
2023-04-19T00:47:18.824Z,15.70
2023-04-19T00:48:18.822Z,15.30
2023-04-19T00:49:18.837Z,15.10
2023-04-19T00:50:18.825Z,15.60
2023-04-19T00:51:18.819Z,14.80
2023-04-19T00:52:18.772Z,16.00
2023-04-19T00:57:59.506Z,14.70
2023-04-19T00:58:59.450Z,15.30
2023-04-19T00:59:59.467Z,15.10
2023-04-19T01:00:59.458Z,15.80
2023-04-19T01:01:59.585Z,15.50
2023-04-19T01:02:59.480Z,15.60
2023-04-19T01:03:59.552Z,15.40
2023-04-19T01:04:59.412Z,16.00
2023-04-19T01:05:59.374Z,16.70
2023-04-19T01:06:59.386Z,16.20
2023-04-19T01:07:59.430Z,16.80
2023-04-19T01:08:59.357Z,17.30
2023-04-19T01:09:59.341Z,15.90
2023-04-19T01:10:59.349Z,16.60
2023-04-19T01:11:59.302Z,16.40
2023-04-19T01:12:59.293Z,16.70
2023-04-19T01:13:59.291Z,15.80
2023-04-19T01:14:59.295Z,16.30
2023-04-19T01:15:59.322Z,16.00
2023-04-19T01:16:59.246Z,16.00
2023-04-19T01:17:59.303Z,16.50
2023-04-19T01:18:59.236Z,17.00
2023-04-19T01:19:59.250Z,15.70
2023-04-19T01:20:59.232Z,16.90
2023-04-19T01:21:59.193Z,17.20
2023-04-19T01:22:59.173Z,17.00
2023-04-19T01:23:59.168Z,16.80
2023-04-19T01:24:59.196Z,16.80
2023-04-19T01:25:59.138Z,16.40
2023-04-19T01:26:59.135Z,16.70
2023-04-19T01:27:59.129Z,17.10
2023-04-19T01:28:59.131Z,15.60
2023-04-19T01:29:59.168Z,16.20
2023-04-19T01:30:59.209Z,15.90
2023-04-19T01:31:59.097Z,16.20
2023-04-19T01:32:59.079Z,16.50
2023-04-19T01:33:59.053Z,16.10
2023-04-19T01:34:59.048Z,16.20
2023-04-19T01:35:59.059Z,15.80
2023-04-19T01:36:59.045Z,16.10
2023-04-19T01:37:59.068Z,15.50
2023-04-19T01:38:58.994Z,15.40
2023-04-19T01:39:58.989Z,15.10
2023-04-19T01:40:58.990Z,14.80
2023-04-19T01:41:58.984Z,14.60
2023-04-19T01:42:58.991Z,14.10
2023-04-19T01:43:58.940Z,14.90
2023-04-19T01:44:58.947Z,14.60
2023-04-19T01:45:58.924Z,15.40
2023-04-19T01:46:58.960Z,14.60
2023-04-19T01:47:58.938Z,15.20
2023-04-19T01:48:58.891Z,14.90
2023-04-19T01:49:58.893Z,13.70
2023-04-19T01:50:58.883Z,14.30
2023-04-19T01:51:58.881Z,15.20
2023-04-19T01:52:58.856Z,14.70
2023-04-19T01:53:58.861Z,15.10
2023-04-19T01:54:58.828Z,14.20
2023-04-19T01:55:58.805Z,14.40
2023-04-19T01:56:58.794Z,14.50
2023-04-19T01:57:58.787Z,14.10
2023-04-19T01:58:58.791Z,13.40
2023-04-19T01:59:58.789Z,12.70
2023-04-19T02:00:58.814Z,12.20
2023-04-19T02:01:58.820Z,13.10
2023-04-19T02:02:59.053Z,13.60
2023-04-19T02:03:58.912Z,12.70
2023-04-19T02:04:58.701Z,11.90
2023-04-19T02:05:58.694Z,12.30
2023-04-19T02:06:58.724Z,11.80
2023-04-19T02:07:58.692Z,12.00
2023-04-19T02:08:58.662Z,12.30
2023-04-19T02:09:58.650Z,11.60
2023-04-19T02:10:58.638Z,11.20
2023-04-19T02:11:58.625Z,10.90
2023-04-19T02:12:58.664Z,10.50
2023-04-19T02:13:58.606Z,11.10
2023-04-19T02:14:58.592Z,11.00
2023-04-19T02:15:58.590Z,11.00
2023-04-19T02:16:58.630Z,11.20
2023-04-19T02:17:58.598Z,11.40
2023-04-19T02:18:58.582Z,11.40
2023-04-19T02:19:58.552Z,11.50
2023-04-19T02:20:58.528Z,11.30
2023-04-19T02:21:58.512Z,11.40
2023-04-19T02:22:58.526Z,10.50
2023-04-19T02:23:58.497Z,11.70
2023-04-19T02:24:58.495Z,12.40
2023-04-19T02:25:58.467Z,11.80
2023-04-19T02:26:58.480Z,11.70
2023-04-19T02:27:58.479Z,11.10
2023-04-19T02:28:58.444Z,11.60
2023-04-19T02:29:58.426Z,11.50
2023-04-19T02:30:58.434Z,10.20
2023-04-19T02:31:58.429Z,9.20
2023-04-19T02:32:58.452Z,9.60
2023-04-19T02:33:58.380Z,9.00
2023-04-19T02:34:58.369Z,8.80
2023-04-19T02:35:58.453Z,8.60
2023-04-19T02:36:58.379Z,9.40
2023-04-19T02:37:58.357Z,8.80
2023-04-19T02:38:58.323Z,8.40
2023-04-19T02:39:58.311Z,8.20
2023-04-19T02:40:58.306Z,8.30
2023-04-19T02:41:58.295Z,8.20
2023-04-19T02:42:58.357Z,8.00
2023-04-19T02:43:58.266Z,10.90
2023-04-19T02:44:58.264Z,8.70
2023-04-19T02:45:58.252Z,8.90
2023-04-19T02:46:58.232Z,8.10
2023-04-19T02:47:58.268Z,7.70
2023-04-19T02:48:58.220Z,8.20
2023-04-19T02:49:58.198Z,9.50
2023-04-19T02:50:58.187Z,11.00
2023-04-19T02:51:58.219Z,9.20
2023-04-19T02:52:58.185Z,16.10
2023-04-19T02:53:58.152Z,17.60
2023-04-19T02:54:58.152Z,9.80
2023-04-19T02:55:58.148Z,8.00
2023-04-19T02:56:58.121Z,7.90
2023-04-19T02:57:58.117Z,6.70
2023-04-19T02:58:58.113Z,7.20
2023-04-19T02:59:58.084Z,7.20
2023-04-19T03:00:58.138Z,6.80
2023-04-19T03:01:58.088Z,7.10
2023-04-19T03:02:58.199Z,7.30
2023-04-19T03:03:58.133Z,7.80
2023-04-19T03:04:58.050Z,8.50
2023-04-19T03:05:58.022Z,16.60
2023-04-19T03:06:58.021Z,11.70
2023-04-19T03:07:58.019Z,10.10
2023-04-19T03:08:57.984Z,11.60
2023-04-19T03:09:58.010Z,13.50
2023-04-19T03:10:57.983Z,12.60
2023-04-19T03:11:57.975Z,10.90
2023-04-19T03:12:57.956Z,11.80
2023-04-19T03:13:58.050Z,10.80
2023-04-19T03:14:57.917Z,9.80
2023-04-19T03:15:57.962Z,10.40
2023-04-19T03:16:57.917Z,8.10
2023-04-19T03:17:57.961Z,10.00
2023-04-19T03:18:57.889Z,11.40
2023-04-19T03:19:57.864Z,11.40
2023-04-19T03:20:57.857Z,11.00
2023-04-19T03:21:57.854Z,8.00
2023-04-19T03:22:57.824Z,8.70
2023-04-19T03:23:57.856Z,9.30
2023-04-19T03:24:57.825Z,8.00
2023-04-19T03:25:57.779Z,9.30
2023-04-19T03:26:57.805Z,8.70
2023-04-19T03:27:57.815Z,8.40
2023-04-19T03:28:57.776Z,8.60
2023-04-19T03:29:57.744Z,19.30
2023-04-19T03:30:57.777Z,12.80
2023-04-19T03:31:57.738Z,9.80
2023-04-19T03:32:57.742Z,9.00
2023-04-19T03:33:57.696Z,11.70
2023-04-19T03:34:57.676Z,8.50
2023-04-19T03:35:57.670Z,7.60
2023-04-19T03:36:57.696Z,8.40
2023-04-19T03:39:28.860Z,6.80
2023-04-19T03:40:28.816Z,9.20
2023-04-19T03:41:28.834Z,9.00
2023-04-19T03:42:29.313Z,9.00
2023-04-19T03:43:28.788Z,8.10
2023-04-19T03:44:28.796Z,8.30
2023-04-19T03:45:28.781Z,8.20
2023-04-19T03:46:28.802Z,7.80
2023-04-19T03:47:28.744Z,7.50
2023-04-19T03:48:28.722Z,7.80
2023-04-19T03:49:28.746Z,7.80
2023-04-19T03:50:28.719Z,7.60
2023-04-19T03:51:28.718Z,7.50
2023-04-19T03:52:28.672Z,7.30
2023-04-19T03:53:28.662Z,7.20
2023-04-19T03:54:28.675Z,7.30
2023-04-19T03:55:28.680Z,7.40
2023-04-19T03:56:28.626Z,7.40
2023-04-19T03:57:28.661Z,8.40
2023-04-19T03:58:28.616Z,8.90
2023-04-19T03:59:28.604Z,8.60
2023-04-19T04:00:28.590Z,9.00
2023-04-19T04:01:28.581Z,9.20
2023-04-19T04:02:28.632Z,9.20
2023-04-19T04:03:28.894Z,9.50
2023-04-19T04:04:28.810Z,9.00
2023-04-19T04:05:28.577Z,10.40
2023-04-19T04:06:28.517Z,10.10
2023-04-19T04:07:28.523Z,10.10
2023-04-19T04:08:28.484Z,10.50
2023-04-19T04:09:28.500Z,11.40
2023-04-19T04:10:28.474Z,10.50
2023-04-19T04:11:28.479Z,10.30
2023-04-19T04:12:28.437Z,10.20
2023-04-19T04:13:28.466Z,9.60
2023-04-19T04:14:28.414Z,10.80
2023-04-19T04:15:28.434Z,11.50
2023-04-19T04:16:28.518Z,10.20
2023-04-19T04:17:28.420Z,10.10
2023-04-19T04:18:28.400Z,9.20
2023-04-19T04:19:28.371Z,9.60
2023-04-19T04:20:28.372Z,10.20
2023-04-19T04:21:28.345Z,9.10
2023-04-19T04:22:28.321Z,10.50
2023-04-19T04:23:28.330Z,10.10
2023-04-19T04:24:28.298Z,9.20
2023-04-19T04:25:28.328Z,10.10
2023-04-19T04:26:28.278Z,10.10
2023-04-19T04:27:28.287Z,10.10
2023-04-19T04:28:28.287Z,8.50
2023-04-19T04:29:28.261Z,10.10
2023-04-19T04:30:28.252Z,10.40
2023-04-19T04:31:28.320Z,10.80
2023-04-19T04:32:28.249Z,11.80
2023-04-19T04:33:28.212Z,13.10
2023-04-19T04:34:28.200Z,17.00
2023-04-19T04:35:28.212Z,15.70
2023-04-19T04:36:28.185Z,13.50
2023-04-19T04:37:28.174Z,14.20
2023-04-19T04:38:28.158Z,13.60
2023-04-19T04:39:28.162Z,13.30
2023-04-19T04:40:28.136Z,12.80
2023-04-19T04:41:28.120Z,13.40
2023-04-19T04:42:28.110Z,12.20
2023-04-19T04:43:28.126Z,12.20
2023-04-19T04:44:28.359Z,11.40
2023-04-19T04:45:28.108Z,11.90
2023-04-19T04:46:28.071Z,11.10
2023-04-19T04:47:28.113Z,10.50
2023-04-19T04:48:28.053Z,10.90
2023-04-19T04:49:28.063Z,10.70
2023-04-19T04:50:28.030Z,11.70
2023-04-19T04:51:28.011Z,10.80
2023-04-19T04:52:28.000Z,11.70
2023-04-19T04:53:27.995Z,14.60
2023-04-19T04:54:28.001Z,13.60
2023-04-19T04:55:28.000Z,13.50
2023-04-19T04:56:28.057Z,12.90
2023-04-19T04:57:27.976Z,13.70
2023-04-19T04:58:27.957Z,16.70
2023-04-19T04:59:27.941Z,17.70
2023-04-19T05:00:27.915Z,17.20
2023-04-19T05:01:27.936Z,15.90
2023-04-19T05:02:27.934Z,15.40
2023-04-19T05:03:27.952Z,15.70
2023-04-19T05:04:27.890Z,16.00
2023-04-19T05:05:27.875Z,14.40
2023-04-19T05:06:27.846Z,17.90
2023-04-19T05:07:27.851Z,15.50
2023-04-19T05:08:27.842Z,14.70
2023-04-19T05:10:52.662Z,12.00
2023-04-19T05:11:52.661Z,13.60
2023-04-19T05:12:52.650Z,14.50
2023-04-19T05:13:52.650Z,12.70
2023-04-19T05:14:52.643Z,13.00
2023-04-19T05:15:52.732Z,12.60
2023-04-19T05:16:52.683Z,15.60
2023-04-19T05:17:52.702Z,15.90
2023-04-19T05:18:52.597Z,12.90
2023-04-19T05:19:52.549Z,11.00
2023-04-19T05:21:00.224Z,12.20
2023-04-19T05:21:52.557Z,12.80
2023-04-19T05:22:52.520Z,11.40
2023-04-19T05:24:00.206Z,11.80
2023-04-19T05:25:01.913Z,13.00
2023-04-19T05:26:00.166Z,14.30
2023-04-19T05:26:52.483Z,13.80
2023-04-19T05:27:52.471Z,13.80
2023-04-19T05:28:52.461Z,13.40
2023-04-19T05:29:52.466Z,11.30
2023-04-19T05:30:52.543Z,8.80
2023-04-19T05:31:52.517Z,7.80
2023-04-19T05:32:52.452Z,8.40
2023-04-19T05:33:52.406Z,6.30
2023-04-19T05:34:52.392Z,5.30
2023-04-19T05:35:52.402Z,5.20
2023-04-19T05:36:52.466Z,4.50
2023-04-19T05:37:52.351Z,4.30
2023-04-19T05:38:52.342Z,4.00
2023-04-19T05:39:52.353Z,3.70
2023-04-19T05:40:52.318Z,3.90
2023-04-19T05:41:52.487Z,3.50
2023-04-19T05:42:52.298Z,3.00
2023-04-19T05:43:52.304Z,4.00
2023-04-19T05:44:52.307Z,4.50
2023-04-19T05:45:52.304Z,3.90
2023-04-19T05:46:52.371Z,4.20
2023-04-19T05:47:52.326Z,5.10
2023-04-19T05:48:52.268Z,5.00
2023-04-19T05:49:52.243Z,4.80
2023-04-19T05:50:52.214Z,4.40
2023-04-19T05:51:52.202Z,3.50
2023-04-19T05:52:52.195Z,3.70
2023-04-19T05:53:52.997Z,3.40
2023-04-19T05:54:52.201Z,3.90
2023-04-19T05:55:52.157Z,3.70
2023-04-19T05:56:52.140Z,3.10
2023-04-19T05:57:52.131Z,3.60
2023-04-19T05:58:52.143Z,3.70
2023-04-19T05:59:52.120Z,3.40
2023-04-19T06:00:52.145Z,4.00
2023-04-19T06:01:52.138Z,4.10
2023-04-19T06:02:52.241Z,4.50
2023-04-19T06:03:52.443Z,5.30
2023-04-19T06:04:52.342Z,5.10
2023-04-19T06:05:52.119Z,5.40
2023-04-19T06:06:52.059Z,6.30
2023-04-19T06:07:55.499Z,6.80
2023-04-19T06:08:54.885Z,6.50
2023-04-19T06:09:52.015Z,6.50
2023-04-19T06:10:56.843Z,7.50
2023-04-19T06:11:53.053Z,8.30
2023-04-19T06:12:51.962Z,11.10
2023-04-19T06:13:51.999Z,8.70
2023-04-19T06:14:51.939Z,9.00
2023-04-19T06:15:51.971Z,9.30
2023-04-19T06:16:51.934Z,9.00
2023-04-19T06:17:52.104Z,8.60
2023-04-19T06:18:52.011Z,8.70
2023-04-19T06:19:51.950Z,7.60
2023-04-19T06:20:51.994Z,9.00
2023-04-19T06:21:51.872Z,8.70
2023-04-19T06:22:51.851Z,8.60
2023-04-19T06:23:51.851Z,9.70
2023-04-19T06:24:51.823Z,9.00
2023-04-19T06:25:51.841Z,8.50
2023-04-19T06:26:51.812Z,7.90
2023-04-19T06:27:51.805Z,8.40
2023-04-19T06:28:51.805Z,8.20
2023-04-19T06:29:51.775Z,8.20
2023-04-19T06:30:51.767Z,8.20
2023-04-19T06:31:51.810Z,8.00
2023-04-19T06:32:51.784Z,8.10
2023-04-19T06:33:51.748Z,8.70
2023-04-19T06:34:51.899Z,7.90
2023-04-19T06:35:51.702Z,7.50
2023-04-19T06:36:51.723Z,7.80
2023-04-19T06:37:52.178Z,8.30
2023-04-19T06:38:51.711Z,7.90
2023-04-19T06:39:51.666Z,7.50
2023-04-19T06:40:51.648Z,7.90
2023-04-19T06:41:51.644Z,7.90
2023-04-19T06:42:51.646Z,7.80
2023-04-19T06:43:51.645Z,7.70
2023-04-19T06:44:51.621Z,7.70
2023-04-19T06:45:52.011Z,6.70
2023-04-19T06:46:51.656Z,5.80
2023-04-19T06:47:51.686Z,6.40
2023-04-19T06:48:51.556Z,8.20
2023-04-19T06:49:51.571Z,9.40
2023-04-19T06:50:54.715Z,7.00
2023-04-19T06:51:51.535Z,5.80
2023-04-19T06:52:51.518Z,7.60
2023-04-19T06:53:51.505Z,18.80
2023-04-19T06:54:51.534Z,7.20
2023-04-19T06:55:51.495Z,6.20
2023-04-19T06:56:51.470Z,6.50
2023-04-19T06:57:51.476Z,6.40
2023-04-19T06:58:51.467Z,6.60
2023-04-19T06:59:51.454Z,6.20
2023-04-19T07:00:51.455Z,6.60
2023-04-19T07:01:51.619Z,5.50
2023-04-19T07:02:51.508Z,6.10
2023-04-19T07:03:51.515Z,4.90
2023-04-19T07:04:51.486Z,5.50
2023-04-19T07:05:51.412Z,5.70
2023-04-19T07:06:51.498Z,6.30
2023-04-19T07:07:51.366Z,4.90
2023-04-19T07:08:51.353Z,5.00
2023-04-19T07:09:51.322Z,5.10
2023-04-19T07:10:51.774Z,6.10
2023-04-19T07:11:51.336Z,5.00
2023-04-19T07:12:51.326Z,5.20
2023-04-19T07:13:51.284Z,5.40
2023-04-19T07:14:51.265Z,5.10
2023-04-19T07:15:51.317Z,5.10
2023-04-19T07:16:52.313Z,4.60
2023-04-19T07:17:51.283Z,5.40
2023-04-19T07:18:51.224Z,4.70
2023-04-19T07:19:51.230Z,3.60
2023-04-19T07:20:51.257Z,4.10
2023-04-19T07:21:51.206Z,3.90
2023-04-19T07:22:51.365Z,4.00
2023-04-19T07:23:51.205Z,4.30
2023-04-19T07:24:51.181Z,4.30
2023-04-19T07:25:51.164Z,6.60
2023-04-19T07:26:51.152Z,3.80
2023-04-19T07:27:52.300Z,5.20
2023-04-19T07:28:51.126Z,3.60
2023-04-19T07:29:51.145Z,3.20
2023-04-19T07:30:51.109Z,4.70
2023-04-19T07:31:51.208Z,4.20
2023-04-19T07:32:51.193Z,5.60
2023-04-19T07:33:51.055Z,3.30
2023-04-19T07:34:51.044Z,3.70
2023-04-19T07:35:51.218Z,3.30
2023-04-19T07:36:51.029Z,3.00
2023-04-19T07:37:51.030Z,3.00
2023-04-19T07:38:51.027Z,3.10
2023-04-19T07:39:51.721Z,3.20
2023-04-19T07:40:51.001Z,4.70
2023-04-19T07:41:51.013Z,4.90
2023-04-19T07:42:50.965Z,5.00
2023-04-19T07:43:50.950Z,4.30
2023-04-19T07:44:50.926Z,3.60
2023-04-19T07:45:50.939Z,4.40
2023-04-19T07:46:50.961Z,4.70
2023-04-19T07:47:50.962Z,5.10
2023-04-19T07:48:50.885Z,5.90
2023-04-19T07:49:50.901Z,5.90
2023-04-19T07:50:50.897Z,3.90
2023-04-19T07:51:50.873Z,3.30
2023-04-19T07:52:50.841Z,2.90
2023-04-19T07:53:50.878Z,2.80
2023-04-19T07:54:50.845Z,3.90
2023-04-19T07:55:50.808Z,3.30
2023-04-19T07:56:50.830Z,3.90
2023-04-19T07:57:50.781Z,3.20
2023-04-19T07:59:04.176Z,2.90
2023-04-19T07:59:51.788Z,2.70
2023-04-19T08:00:50.789Z,3.00
2023-04-19T08:01:50.899Z,3.50
2023-04-19T08:02:50.890Z,3.90
2023-04-19T08:03:50.888Z,3.60
2023-04-19T08:04:50.965Z,4.30
2023-04-19T08:05:50.878Z,5.20
2023-04-19T08:06:50.678Z,3.30
2023-04-19T08:07:50.687Z,2.60
2023-04-19T08:08:50.661Z,2.30
2023-04-19T08:09:50.681Z,2.70
2023-04-19T08:10:50.695Z,2.30
2023-04-19T08:11:50.667Z,3.30
2023-04-19T08:13:04.344Z,3.70
2023-04-19T08:14:04.678Z,3.30
2023-04-19T08:15:02.531Z,2.60
2023-04-19T08:16:24.559Z,2.80
2023-04-19T08:17:50.725Z,2.00
2023-04-19T08:18:50.549Z,2.40
2023-04-19T08:19:50.553Z,3.40
2023-04-19T08:20:50.523Z,4.20
2023-04-19T08:21:50.536Z,5.10
2023-04-19T08:22:50.553Z,2.80
2023-04-19T08:23:52.594Z,2.80
2023-04-19T08:24:50.479Z,4.00
2023-04-19T08:25:50.476Z,6.40
2023-04-19T08:27:00.064Z,5.30
2023-04-19T08:27:50.648Z,3.80
2023-04-19T08:28:50.617Z,3.80
2023-04-19T08:29:50.512Z,2.80
2023-04-19T08:30:50.616Z,2.10
2023-04-19T08:31:50.440Z,3.10
2023-04-19T08:32:50.489Z,3.00
2023-04-19T08:33:50.432Z,4.00
2023-04-19T08:34:50.392Z,4.60
2023-04-19T08:35:50.370Z,6.50
2023-04-19T08:37:00.254Z,2.40
2023-04-19T08:37:51.338Z,5.00
2023-04-19T08:39:01.875Z,3.00
2023-04-19T08:39:51.321Z,4.20
2023-04-19T08:40:50.298Z,5.40
2023-04-19T08:41:55.961Z,3.60
2023-04-19T08:42:51.319Z,3.20
2023-04-19T08:43:50.290Z,3.30
2023-04-19T08:45:06.369Z,2.50
2023-04-19T08:47:00.748Z,2.10
2023-04-19T08:48:02.157Z,2.20
2023-04-19T08:49:00.595Z,2.40
2023-04-19T08:50:11.112Z,2.30
2023-04-19T08:51:05.439Z,2.40
2023-04-19T08:52:00.501Z,2.80
2023-04-19T08:53:08.542Z,4.00
2023-04-19T08:54:01.484Z,5.20
2023-04-19T08:55:00.499Z,3.10
2023-04-19T08:56:10.576Z,3.10
2023-04-19T08:57:01.442Z,2.20
2023-04-19T08:58:00.447Z,7.60
2023-04-19T08:59:19.511Z,2.50
2023-04-19T09:00:01.472Z,2.40
2023-04-19T09:01:00.443Z,2.70
2023-04-19T09:02:00.535Z,1.90
2023-04-19T09:03:00.561Z,2.40
2023-04-19T09:04:07.267Z,2.90
2023-04-19T09:05:01.771Z,2.70
2023-04-19T09:06:00.471Z,2.40
2023-04-19T09:07:00.349Z,2.40
2023-04-19T09:08:01.146Z,2.10
2023-04-19T09:09:00.325Z,2.30
2023-04-19T09:10:03.730Z,3.00
2023-04-19T09:11:00.309Z,2.30
2023-04-19T09:12:00.354Z,2.20
2023-04-19T09:13:00.290Z,2.10
2023-04-19T09:14:00.370Z,2.40
2023-04-19T09:15:02.288Z,2.10
2023-04-19T09:16:00.280Z,2.70
2023-04-19T09:17:00.252Z,2.60
2023-04-19T09:18:00.264Z,2.10
2023-04-19T09:19:22.485Z,2.10
2023-04-19T09:20:01.187Z,3.50
2023-04-19T09:21:00.172Z,2.30
2023-04-19T09:22:00.177Z,2.80
2023-04-19T09:23:00.146Z,2.80
2023-04-19T09:24:01.351Z,2.60
2023-04-19T09:26:22.062Z,2.60
2023-04-19T09:27:01.100Z,2.80
2023-04-19T09:28:00.099Z,2.90
2023-04-19T09:29:00.129Z,2.70
2023-04-19T09:30:00.196Z,2.80
2023-04-19T09:31:07.025Z,2.60
2023-04-19T09:32:01.184Z,2.80
2023-04-19T09:33:00.072Z,3.00
2023-04-19T09:34:00.066Z,2.60
2023-04-19T09:35:00.043Z,2.80
2023-04-19T09:36:00.016Z,2.90
2023-04-19T09:37:08.992Z,2.90
2023-04-19T09:38:05.285Z,2.60
2023-04-19T09:39:00.956Z,2.60
2023-04-19T09:39:59.944Z,2.50
2023-04-19T09:40:59.940Z,2.30
2023-04-19T09:41:59.953Z,2.60
2023-04-19T09:43:13.032Z,2.40
2023-04-19T09:44:15.567Z,2.40
2023-04-19T09:45:28.370Z,2.30
2023-04-19T09:46:00.980Z,2.40
2023-04-19T09:46:59.899Z,3.30
2023-04-19T09:47:59.913Z,2.80
2023-04-19T09:49:01.931Z,2.40
2023-04-19T09:51:04.545Z,2.70
2023-04-19T09:52:00.819Z,3.00
2023-04-19T09:52:59.825Z,2.60
2023-04-19T09:53:59.797Z,3.30
2023-04-19T09:54:59.785Z,2.60
2023-04-19T09:56:02.212Z,2.80
2023-04-19T09:57:01.474Z,2.60
2023-04-19T09:57:59.751Z,2.40
2023-04-19T09:59:12.635Z,2.40
2023-04-19T10:00:00.731Z,2.50
2023-04-19T10:01:10.462Z,2.70
2023-04-19T10:02:00.943Z,2.60
2023-04-19T10:02:59.744Z,2.70
2023-04-19T10:04:10.262Z,2.50
2023-04-19T10:05:16.426Z,2.80
2023-04-19T10:06:10.259Z,2.50
2023-04-19T10:07:25.348Z,2.60
2023-04-19T10:08:00.723Z,2.70
2023-04-19T10:08:59.616Z,2.50
2023-04-19T10:10:59.596Z,2.70
2023-04-19T10:12:07.874Z,2.30
2023-04-19T10:13:16.067Z,2.50
2023-04-19T10:14:00.563Z,2.70
2023-04-19T10:14:59.550Z,2.80
2023-04-19T10:16:11.743Z,2.70
2023-04-19T10:17:00.568Z,2.40
2023-04-19T10:17:59.632Z,2.50
2023-04-19T10:18:59.508Z,2.90
2023-04-19T10:19:59.495Z,2.60
2023-04-19T10:20:59.488Z,2.60
2023-04-19T10:21:59.467Z,2.40
2023-04-19T10:22:59.482Z,2.30
2023-04-19T10:23:59.477Z,2.40
2023-04-19T10:24:59.435Z,2.50
2023-04-19T10:25:59.449Z,2.30
2023-04-19T10:26:59.422Z,2.60
2023-04-19T10:27:59.398Z,2.60
2023-04-19T10:28:59.388Z,2.90
2023-04-19T10:29:59.407Z,2.50
2023-04-19T10:30:59.401Z,2.20
2023-04-19T10:31:59.400Z,2.60
2023-04-19T10:32:59.422Z,2.70
2023-04-19T10:33:59.359Z,2.80
2023-04-19T10:34:59.342Z,2.90
2023-04-19T10:35:59.321Z,2.70
2023-04-19T10:36:59.320Z,2.50
2023-04-19T10:37:59.306Z,2.50
2023-04-19T10:38:59.311Z,2.70
2023-04-19T10:39:59.259Z,2.40
2023-04-19T10:40:59.277Z,2.90
2023-04-19T10:41:59.333Z,2.60
2023-04-19T10:42:59.257Z,2.80
2023-04-19T10:43:59.216Z,2.60
2023-04-19T10:44:59.208Z,2.50
2023-04-19T10:45:59.236Z,3.00
2023-04-19T10:46:59.190Z,2.40
2023-04-19T10:47:59.191Z,2.80
2023-04-19T10:48:59.165Z,2.80
2023-04-19T10:49:59.169Z,2.70
2023-04-19T10:50:59.157Z,2.90
2023-04-19T10:51:59.136Z,2.70
2023-04-19T10:52:59.119Z,2.70
2023-04-19T10:53:59.157Z,2.70
2023-04-19T10:54:59.094Z,2.60
2023-04-19T10:55:59.077Z,2.90
2023-04-19T10:56:59.072Z,2.60
2023-04-19T10:57:59.073Z,2.80
2023-04-19T10:58:59.069Z,2.60
2023-04-19T10:59:59.055Z,2.90
2023-04-19T11:00:59.088Z,2.90
2023-04-19T11:01:59.197Z,2.90
2023-04-19T11:02:59.185Z,3.00
2023-04-19T11:03:59.076Z,2.60
2023-04-19T11:04:59.001Z,3.00
2023-04-19T11:05:59.037Z,2.90
2023-04-19T11:06:58.959Z,3.00
2023-04-19T11:07:58.944Z,2.90
2023-04-19T11:08:58.935Z,2.90
2023-04-19T11:09:58.979Z,3.00
2023-04-19T11:10:58.907Z,2.80
2023-04-19T11:11:58.924Z,3.00
2023-04-19T11:12:58.907Z,3.60
2023-04-19T11:13:58.874Z,3.00
2023-04-19T11:14:58.881Z,2.80
2023-04-19T11:15:58.932Z,2.80
2023-04-19T11:16:58.959Z,2.90
2023-04-19T11:18:11.409Z,3.00
2023-04-19T11:18:59.815Z,3.40
2023-04-19T11:19:58.806Z,2.90
2023-04-19T11:20:58.821Z,2.90
2023-04-19T11:21:58.830Z,3.20
2023-04-19T11:22:58.792Z,3.40
2023-04-19T11:23:58.777Z,3.50
2023-04-19T11:24:58.750Z,2.80
2023-04-19T11:25:58.801Z,3.20
2023-04-19T11:26:58.722Z,3.20
2023-04-19T11:27:58.733Z,3.10
2023-04-19T11:28:58.734Z,3.10
2023-04-19T11:29:58.700Z,3.10
2023-04-19T11:30:58.718Z,2.80
2023-04-19T11:31:58.694Z,2.90
2023-04-19T11:32:58.754Z,2.80
2023-04-19T11:33:58.651Z,2.50
2023-04-19T11:34:58.634Z,2.90
2023-04-19T11:35:58.652Z,2.40
2023-04-19T11:36:58.669Z,2.90
2023-04-19T11:37:58.722Z,2.80
2023-04-19T11:38:58.638Z,2.70
2023-04-19T11:39:58.574Z,2.90
2023-04-19T11:40:58.849Z,2.80
2023-04-19T11:41:58.559Z,3.00
2023-04-19T11:42:58.565Z,2.80
2023-04-19T11:43:58.550Z,2.80
2023-04-19T11:44:58.522Z,2.80
2023-04-19T11:45:58.540Z,3.10
2023-04-19T11:46:58.578Z,3.00
2023-04-19T11:47:58.594Z,3.40
2023-04-19T11:48:58.479Z,2.90
2023-04-19T11:49:58.468Z,3.10
2023-04-19T11:50:58.460Z,3.00
2023-04-19T11:51:58.452Z,3.00
2023-04-19T11:52:58.430Z,3.10
2023-04-19T11:53:58.460Z,2.90
2023-04-19T11:54:58.414Z,2.80
2023-04-19T11:55:58.391Z,2.90
2023-04-19T11:56:58.429Z,2.90
2023-04-19T11:57:58.382Z,2.80
2023-04-19T11:58:58.383Z,3.10
2023-04-19T11:59:58.348Z,3.10
2023-04-19T12:00:58.472Z,3.40
2023-04-19T12:01:58.350Z,3.00
2023-04-19T12:02:58.577Z,3.10
2023-04-19T12:03:58.630Z,2.90
2023-04-19T12:04:58.472Z,3.00
2023-04-19T12:05:58.463Z,2.90
2023-04-19T12:06:58.269Z,3.20
2023-04-19T12:07:58.263Z,2.90
2023-04-19T12:08:58.253Z,3.50
2023-04-19T12:09:58.269Z,3.20
2023-04-19T12:10:58.272Z,3.10
2023-04-19T12:11:58.239Z,3.30
2023-04-19T12:12:58.217Z,3.10
2023-04-19T12:13:58.186Z,3.40
2023-04-19T12:14:58.217Z,3.10
2023-04-19T12:15:58.708Z,3.60
2023-04-19T12:16:58.296Z,3.30
2023-04-19T12:17:58.177Z,3.20
2023-04-19T12:18:58.130Z,3.30
2023-04-19T12:19:58.143Z,3.20
2023-04-19T12:21:01.276Z,3.00
2023-04-19T12:21:58.113Z,2.80
2023-04-19T12:22:58.086Z,3.00
2023-04-19T12:23:58.112Z,2.60
2023-04-19T12:24:58.059Z,2.90
2023-04-19T12:25:58.089Z,2.70
2023-04-19T12:26:58.061Z,2.70
2023-04-19T12:27:58.045Z,3.00
2023-04-19T12:28:58.063Z,3.10
2023-04-19T12:29:58.010Z,2.70
2023-04-19T12:30:57.996Z,2.70
2023-04-19T12:31:58.026Z,2.70
2023-04-19T12:32:58.161Z,2.70
2023-04-19T12:33:57.979Z,3.10
2023-04-19T12:35:06.880Z,2.70
2023-04-19T12:35:57.997Z,2.80
2023-04-19T12:36:58.026Z,2.90
2023-04-19T12:38:06.966Z,2.70
2023-04-19T12:38:57.903Z,3.30
2023-04-19T12:40:05.068Z,3.10
2023-04-19T12:41:05.670Z,3.00
2023-04-19T12:41:57.933Z,3.20
2023-04-19T12:42:57.858Z,3.00
2023-04-19T12:43:57.875Z,3.00
2023-04-19T12:44:57.909Z,2.70
2023-04-19T12:45:58.052Z,3.00
2023-04-19T12:46:58.061Z,3.00
2023-04-19T12:47:57.830Z,3.10
2023-04-19T12:48:57.797Z,3.10
2023-04-19T12:49:57.777Z,3.10
2023-04-19T12:50:57.781Z,2.80
2023-04-19T12:51:57.785Z,3.10
2023-04-19T12:52:57.752Z,2.80
2023-04-19T12:53:57.737Z,2.70
2023-04-19T12:54:57.717Z,3.00
2023-04-19T12:55:57.720Z,3.10
2023-04-19T12:56:57.745Z,3.10
2023-04-19T12:57:57.716Z,3.10
2023-04-19T12:58:57.695Z,3.00
2023-04-19T12:59:57.660Z,2.70
2023-04-19T13:00:57.647Z,2.70
2023-04-19T13:01:57.793Z,2.90
2023-04-19T13:02:57.773Z,3.00
2023-04-19T13:03:59.387Z,2.80
2023-04-19T13:04:57.708Z,3.10
2023-04-19T13:05:57.592Z,3.00
2023-04-19T13:06:57.613Z,2.90
2023-04-19T13:07:57.592Z,2.80
2023-04-19T13:09:00.834Z,3.00
2023-04-19T13:09:58.293Z,2.70
2023-04-19T13:10:57.569Z,2.70
2023-04-19T13:11:57.544Z,2.80
2023-04-19T13:12:57.558Z,2.70
2023-04-19T13:13:57.515Z,2.90
2023-04-19T13:14:57.484Z,2.90
2023-04-19T13:15:57.525Z,2.80
2023-04-19T13:16:57.496Z,2.70
2023-04-19T13:17:57.555Z,2.40
2023-04-19T13:18:57.441Z,2.80
2023-04-19T13:19:57.446Z,2.80
2023-04-19T13:20:57.420Z,3.00
2023-04-19T13:21:57.433Z,2.50
2023-04-19T13:22:57.416Z,2.70